EKKA

Karup Airport

Karup, Denmark
METAR EKKA 191650Z AUTO 17004KT 9999NDV BKN110/// 00/M01 Q1016 R27L/790095
Observed Flight Rules
Jan-19 @ 16:50 UTC (23 minutes ago) Instrument Flight Rules
Wind Visibility Clouds
170° at 4 knots 97 meters
  • Broken at 11,000' AGL
Temperatures Readings
Current 0°C / 32°F
Dewpoint -1°C / 30°F
Humidity 93%
Altimeter 30" Hg
Pressure 1015.92 hPa
Elevation 52
METAR EKKA 191650Z AUTO 17004KT 9999NDV BKN110/// 00/M01 Q1016 R27L/790095
Observed Flight Rules
Jan-19 @ 16:50 UTC
(23 minutes ago)
LIFR
Wind Visibility
170° at 4 knots 97 meters
Clouds
  • Broken at 11,000' AGL
Temperature Dewpoint
0°C / 32°F -1°C / 30°F
Humidity Altimeter Pressure
93% 30" Hg 1015.92 hPa